Juneau, AK NWLON current weather conditions

sailwx.info

Wind from 193

Air temperature 5.0° C
Water temperature 6.7° C

Last reported at 2020-Oct-28 16:42 UTC.
Time now 2020-Oct-28 17:44 UTC

Location: N 58°18' W 134°25'.
View on Google Maps.

See reports from other nearby stations

  
Tides and Currents Weather Stations Pressure Air Temp Water Temp Dewpoint Dewpoint Depression Visibility Wind Speed Wind Dir Waves Ship Positions
date/time (UTC)wind fromknots sea level pressurealtimeterstation pressurevisibilityair tempwater tempwave heightnotes
2020-Oct-28 16:42 193 5.0 6.7
2020-Oct-28 16:36 207 5.0 6.7
2020-Oct-28 16:30 090 5.0 6.7
2020-Oct-28 16:24 207 5.0 6.7
2020-Oct-28 16:18 189 4.4 6.7
2020-Oct-28 16:12 182 0 gusting 2 4.4 6.7
2020-Oct-28 16:06 158 0 gusting 1 5.0 6.7
2020-Oct-28 16:00 089 5.0 6.7
2020-Oct-28 15:54 068 5.0 6.1
2020-Oct-28 15:48 117 5.0 6.1
2020-Oct-28 15:42 097 1 gusting 1 5.0 6.1
2020-Oct-28 15:36 074 1 gusting 1 5.0 6.1
2020-Oct-28 15:30 097 0 gusting 1 5.0 6.1
2020-Oct-28 15:24 200 0 gusting 1 5.0 6.1
2020-Oct-28 15:18 125 5.0 6.1
2020-Oct-28 15:12 142 1 gusting 1 5.0 6.1
2020-Oct-28 15:06 138 1 gusting 1 5.0 6.1
2020-Oct-28 15:00 091 5.0 6.1
2020-Oct-28 14:54 064 0 gusting 1 5.0 6.1
2020-Oct-28 14:48 084 0 gusting 0 5.0 6.1
2020-Oct-28 14:42 074 0 gusting 1 5.0 6.1
2020-Oct-28 14:36 068 0 gusting 2 5.0 6.1
2020-Oct-28 14:30 057 0 gusting 1 5.0 6.1
2020-Oct-28 14:24 029 0 gusting 1 5.0 6.1
2020-Oct-28 14:18 032 5.0 6.1
2020-Oct-28 14:12 082 0 gusting 1 5.0 5.6
2020-Oct-28 14:06 083 1 gusting 2 5.0 6.1
2020-Oct-28 14:00 083 1 gusting 2 5.0 5.6
2020-Oct-28 13:54 076 1 gusting 2 5.0 5.6
2020-Oct-28 13:48 055 1 gusting 1 5.0 6.1
2020-Oct-28 13:42 077 0 gusting 1 5.0 6.1
2020-Oct-28 13:36 092 0 gusting 2 5.0 6.1
2020-Oct-28 13:30 075 1 gusting 1 5.0 6.1
2020-Oct-28 13:24 074 0 gusting 1 5.0 6.1
2020-Oct-28 13:06 069 1 gusting 3 5.0 6.1
2020-Oct-28 13:00 082 1 gusting 2 5.6 6.1
2020-Oct-28 12:54 091 0 gusting 0 5.6 6.1
2020-Oct-28 12:48 088 0 gusting 1 5.6 6.1
2020-Oct-28 12:36 075 1 gusting 1 5.6 6.1
2020-Oct-28 12:30 069 0 gusting 1 5.6 6.1
2020-Oct-28 12:12 135 1 gusting 2 5.6 6.7
2020-Oct-28 12:06 062 2 gusting 3 5.6 6.7
2020-Oct-28 12:00 066 1 gusting 2 5.6 6.7
2020-Oct-28 11:54 046 0 gusting 3 5.6 6.7
2020-Oct-28 11:48 042 2 gusting 3 5.6 6.7
2020-Oct-28 11:42 061 1 gusting 3 5.6 6.7
2020-Oct-28 11:36 079 1 gusting 1 5.6 6.7
2020-Oct-28 11:30 086 0 gusting 1 5.6 6.7
2020-Oct-28 11:24 067 1 gusting 2 5.6 6.7
2020-Oct-28 11:18 074 1 gusting 3 5.6 6.7
2020-Oct-28 11:12 073 0 gusting 1 5.6 6.7
2020-Oct-28 11:06 106 1 gusting 2 5.6 6.7
2020-Oct-28 11:00 119 2 gusting 3 5.6 6.7
2020-Oct-28 10:54 105 2 gusting 4 5.6 6.7
2020-Oct-28 10:48 083 2 gusting 3 5.6 6.7
2020-Oct-28 10:42 080 1 gusting 3 5.6 6.7
2020-Oct-28 10:36 081 1 gusting 3 5.6 6.7
2020-Oct-28 10:30 068 1 gusting 3 5.6 6.7
2020-Oct-28 10:24 139 0 gusting 3 5.6 6.7
2020-Oct-28 10:18 142 4 gusting 6 6.1 6.7
2020-Oct-28 10:12 142 4 gusting 6 5.6 6.7
2020-Oct-28 10:06 155 5 gusting 6 5.6 6.7
2020-Oct-28 10:00 161 2 gusting 3 5.6 6.7
2020-Oct-28 09:54 143 1 gusting 3 5.6 6.7
2020-Oct-28 09:48 113 0 gusting 2 5.6 6.7
2020-Oct-28 09:42 085 1 gusting 2 5.6 6.7
2020-Oct-28 09:36 116 1 gusting 2 6.1 6.7
2020-Oct-28 09:30 079 1 gusting 2 6.1 6.7
2020-Oct-28 09:24 074 2 gusting 3 6.1 6.7
2020-Oct-28 09:18 066 0 gusting 2 6.1 6.7
2020-Oct-28 09:12 071 0 gusting 2 6.1 6.7
2020-Oct-28 09:06 061 1 gusting 2 6.1 6.7
2020-Oct-28 09:00 070 0 gusting 1 6.1 7.2
2020-Oct-28 08:54 023 0 gusting 1 6.1 7.2
2020-Oct-28 08:48 040 0 gusting 2 6.1 7.2
2020-Oct-28 08:42 045 1 gusting 2 6.1 7.2
2020-Oct-28 08:36 045 1 gusting 2 6.1 7.2
2020-Oct-28 08:30 052 1 gusting 2 6.1 7.2
2020-Oct-28 08:24 068 0 gusting 1 5.6 7.2
2020-Oct-28 08:18 084 2 gusting 3 5.6 7.2
2020-Oct-28 08:12 080 1 gusting 3 5.6 7.2
2020-Oct-28 08:06 088 1 gusting 2 5.6 7.2
2020-Oct-28 08:00 109 1 gusting 3 5.6 7.2
2020-Oct-28 07:54 103 3 gusting 3 6.1 7.2
2020-Oct-28 07:48 096 2 gusting 3 6.1 7.2
2020-Oct-28 07:42 079 3 gusting 3 6.1 7.2
2020-Oct-28 07:36 017 1 gusting 1 5.6 7.2
2020-Oct-28 07:30 047 1 gusting 3 5.6 7.2
2020-Oct-28 07:24 093 2 gusting 2 5.6 7.2
2020-Oct-28 07:18 082 1 gusting 2 5.6 7.2
2020-Oct-28 07:12 077 0 gusting 2 5.6 7.2
2020-Oct-28 07:06 109 0 gusting 2 5.6 7.2
2020-Oct-28 07:00 098 5.6 7.2
2020-Oct-28 06:54 087 5.6 7.2
2020-Oct-28 06:48 076 6.1 7.2
2020-Oct-28 06:42 092 0 gusting 2 6.1 7.2
2020-Oct-28 06:36 079 1 gusting 3 6.1 7.2
2020-Oct-28 06:30 073 1 gusting 2 6.1 7.2
2020-Oct-28 06:24 046 1 gusting 2 6.1 7.2
2020-Oct-28 06:18 074 0 gusting 1 6.1 7.2
2020-Oct-28 06:12 073 1 gusting 2 6.1 7.2
2020-Oct-28 06:06 073 0 gusting 1 6.1 7.2
2020-Oct-28 06:00 110 0 gusting 0 5.6 7.2
2020-Oct-28 05:54 091 0 gusting 0 5.6 7.2
2020-Oct-28 05:48 068 0 gusting 2 5.6 6.7
2020-Oct-28 05:42 056 0 gusting 2 5.6 6.7
2020-Oct-28 05:36 061 1 gusting 2 5.6 6.7
2020-Oct-28 05:30 058 0 gusting 1 5.6 6.7
2020-Oct-28 05:24 079 1 gusting 2 5.6 6.7
2020-Oct-28 05:18 091 1 gusting 1 5.6 6.7
2020-Oct-28 05:12 090 0 gusting 1 5.0 6.7
2020-Oct-28 05:06 183 1 gusting 2 5.0 6.1
2020-Oct-28 05:00 066 0 gusting 2 5.6 6.1
2020-Oct-28 04:54 051 1 gusting 2 5.6 6.1
2020-Oct-28 04:48 067 0 gusting 1 5.6 6.1
2020-Oct-28 04:42 076 1 gusting 1 5.6 6.1
2020-Oct-28 04:36 070 0 gusting 2 5.6 6.1
2020-Oct-28 04:30 072 2 gusting 3 5.6 6.1
2020-Oct-28 04:24 075 1 gusting 2 5.6 6.1
2020-Oct-28 04:18 070 0 gusting 1 5.6 6.1
2020-Oct-28 04:12 038 1 gusting 2 5.6 6.1
2020-Oct-28 04:06 097 0 gusting 2 5.6 5.6
2020-Oct-28 04:00 094 2 gusting 2 5.6 5.6
2020-Oct-28 03:54 100 2 gusting 2 5.6 5.6
2020-Oct-28 03:48 143 0 gusting 1 5.6 5.6
2020-Oct-28 03:42 088 0 gusting 3 5.6 5.6
2020-Oct-28 03:36 074 2 gusting 3 5.6 5.6
2020-Oct-28 03:30 060 0 gusting 0 5.6 5.6
2020-Oct-28 03:24 068 5.6 5.6
2020-Oct-28 03:18 076 1 gusting 2 5.6 5.6
2020-Oct-28 03:12 095 1 gusting 1 6.1 5.6
2020-Oct-28 03:06 081 0 gusting 1 6.1 5.6
2020-Oct-28 03:00 075 0 gusting 2 6.1 5.6
2020-Oct-28 02:54 081 2 gusting 3 6.1 5.6
2020-Oct-28 02:48 097 1 gusting 2 6.1 5.6
2020-Oct-28 02:42 062 6.1 5.6
2020-Oct-28 02:36 004 0 gusting 1 6.1 5.6
2020-Oct-28 02:30 038 0 gusting 1 6.1 5.6
2020-Oct-28 02:24 072 0 gusting 0 6.1 5.6
2020-Oct-28 02:18 072 6.1 5.6
2020-Oct-28 02:12 106 6.1 5.6
2020-Oct-28 02:06 096 2 gusting 4 6.1 5.6
2020-Oct-28 02:00 086 3 gusting 4 6.1 5.6
2020-Oct-28 01:54 138 3 gusting 4 6.1 5.6
2020-Oct-28 01:48 143 0 gusting 2 6.1 5.6
2020-Oct-28 01:42 134 1 gusting 3 6.1 5.6
2020-Oct-28 01:36 119 0 gusting 3 6.1 5.6
2020-Oct-28 01:30 146 3 gusting 5 6.1 6.1
2020-Oct-28 01:24 160 5 gusting 6 6.1 6.1
2020-Oct-28 01:18 158 5 gusting 7 6.7 6.1
2020-Oct-28 01:12 159 6 gusting 7 6.7 5.6
2020-Oct-28 01:06 148 5 gusting 7 6.7 6.1
2020-Oct-28 01:00 154 6 gusting 8 6.7 6.1
2020-Oct-28 00:54 136 6 gusting 8 7.2 6.1
2020-Oct-28 00:48 115 3 gusting 12 7.2 6.1
2020-Oct-28 00:42 147 7 gusting 10 6.7 6.1
2020-Oct-28 00:36 139 7 gusting 12 6.7 6.1
2020-Oct-28 00:30 134 8 gusting 11 6.7 6.1
2020-Oct-28 00:24 148 9 gusting 12 6.7 6.1
2020-Oct-28 00:18 151 7 gusting 10 6.7 6.1
2020-Oct-28 00:12 143 8 gusting 12 6.7 6.1
2020-Oct-28 00:06 129 10 gusting 13 7.2 6.1
2020-Oct-28 00:00 130 9 gusting 11 7.2 6.1
2020-Oct-27 23:42 146 6 gusting 8 6.7 6.1
2020-Oct-27 23:36 148 6 gusting 8 6.7 6.1
2020-Oct-27 23:30 156 6 gusting 6 6.7 6.1
2020-Oct-27 23:24 146 5 gusting 6 6.7 6.1
2020-Oct-27 23:18 158 6 gusting 6 6.7 6.1
2020-Oct-27 23:12 133 6 gusting 11 6.7 6.1
2020-Oct-27 23:06 123 8 gusting 13 7.2 6.1
2020-Oct-27 23:00 128 9 gusting 13 7.2 6.7
2020-Oct-27 22:54 144 9 gusting 11 6.7 6.7
2020-Oct-27 22:48 138 6 gusting 9 6.7 6.7
2020-Oct-27 22:42 130 7 gusting 11 6.7 6.7
2020-Oct-27 22:36 130 8 gusting 10 6.7 6.7
2020-Oct-27 22:30 136 6 gusting 9 6.7 6.7
2020-Oct-27 22:24 123 8 gusting 13 6.7 6.7
2020-Oct-27 22:18 130 11 gusting 13 7.2 6.7
2020-Oct-27 22:12 135 9 gusting 12 7.2 6.7
2020-Oct-27 22:06 125 10 gusting 11 7.2 6.7
2020-Oct-27 22:00 130 6 gusting 6 7.2 6.7
2020-Oct-27 21:54 125 6 gusting 7 7.8 6.7
2020-Oct-27 21:48 123 4 gusting 8 7.2 6.7
2020-Oct-27 21:42 130 5 gusting 6 6.7 6.7
2020-Oct-27 21:36 101 2 gusting 4 7.2 6.7
2020-Oct-27 21:30 111 5 gusting 11 7.2 6.7
2020-Oct-27 21:24 138 7 gusting 11 7.2 6.7
2020-Oct-27 21:18 143 6 gusting 8 6.7 6.7
2020-Oct-27 21:12 149 6 gusting 7 6.7 6.7
2020-Oct-27 21:06 142 8 gusting 11 6.7 6.7
2020-Oct-27 21:00 132 10 gusting 11 7.2 6.7
2020-Oct-27 20:54 132 9 gusting 11 7.2 6.7
2020-Oct-27 20:48 126 9 gusting 11 7.2 6.7
2020-Oct-27 20:42 122 8 gusting 12 6.7 6.7
2020-Oct-27 20:36 119 11 gusting 13 7.2 6.7
2020-Oct-27 20:30 127 8 gusting 11 6.7 6.7
2020-Oct-27 20:24 139 7 gusting 9 6.1 7.2
2020-Oct-27 20:18 152 6 gusting 8 5.6 7.2
2020-Oct-27 20:12 147 7 gusting 9 5.6 7.2
2020-Oct-27 20:06 142 7 gusting 8 6.1 7.2
2020-Oct-27 20:00 156 7 gusting 8 5.6 7.2
2020-Oct-27 19:54 158 6 gusting 7 6.1 7.2
2020-Oct-27 19:48 140 7 gusting 9 6.7 7.2
2020-Oct-27 19:42 134 8 gusting 10 6.7 7.2
2020-Oct-27 19:36 127 7 gusting 9 6.1 7.2
2020-Oct-27 19:30 116 6 gusting 9 6.7 7.2
2020-Oct-27 19:24 112 7 gusting 13 6.7 7.2
2020-Oct-27 19:18 124 9 gusting 12 6.7 7.2
2020-Oct-27 19:12 109 8 gusting 11 6.7 7.2
2020-Oct-27 19:06 105 8 gusting 11 6.7 7.2
2020-Oct-27 19:00 099 6 gusting 10 6.7 7.2
2020-Oct-27 18:54 126 7 gusting 11 6.7 7.2
2020-Oct-27 18:48 117 6 gusting 8 6.7 7.2
2020-Oct-27 18:42 129 6 gusting 9 6.1 7.2
2020-Oct-27 18:36 117 5 gusting 9 6.1 7.2
2020-Oct-27 18:30 120 7 gusting 12 6.7 7.2
2020-Oct-27 18:24 105 5 gusting 10 6.7 7.2
2020-Oct-27 18:18 107 7 gusting 11 6.7 6.7
2020-Oct-27 18:12 110 5 gusting 11 6.7 6.7
2020-Oct-27 18:06 111 8 gusting 12 6.7 6.7
2020-Oct-27 18:00 115 8 gusting 10 6.7 6.7
2020-Oct-27 17:54 124 7 gusting 10 6.1 6.7
2020-Oct-27 17:48 120 8 gusting 10 6.1 6.7
2020-Oct-27 17:42 123 6 gusting 11 6.1 6.7
2020-Oct-27 17:36 122 7 gusting 10 6.1 6.7
2020-Oct-27 17:30 122 6 gusting 8 6.1 6.7
2020-Oct-27 17:24 108 5 gusting 9 6.1 6.7
2020-Oct-27 17:18 104 3 gusting 10 6.1 6.7
2020-Oct-27 17:12 111 6 gusting 10 6.1 6.7
2020-Oct-27 17:06 113 6 gusting 8 6.1 6.7
2020-Oct-27 17:00 134 6 gusting 7 6.1 6.7
2020-Oct-27 16:54 110 6 gusting 8 6.1 6.7
2020-Oct-27 16:48 123 6 gusting 9 6.1 6.7
2020-Oct-27 16:42 134 6 gusting 7 5.6 6.7
2020-Oct-27 16:36 167 4 gusting 9 5.6 6.1
2020-Oct-27 16:30 138 6 gusting 7 6.1 6.1
2020-Oct-27 16:24 114 5 gusting 11 6.1 6.1
2020-Oct-27 16:18 109 6 gusting 10 6.1 6.1
2020-Oct-27 16:12 107 6 gusting 10 6.1 6.1
2020-Oct-27 16:06 107 6 gusting 9 6.1 6.1
2020-Oct-27 16:00 101 4 gusting 8 6.1 6.1
2020-Oct-27 15:54 106 5 gusting 8 6.7 6.1
2020-Oct-27 15:48 169 1 gusting 5 5.6 5.6
2020-Oct-27 15:42 140 5 gusting 6 5.0 5.6
2020-Oct-27 15:36 122 1 gusting 6 5.6 5.6
2020-Oct-27 15:30 135 4 gusting 6 5.6 5.6
2020-Oct-27 15:24 120 2 gusting 4 5.6 5.6
2020-Oct-27 15:18 132 3 gusting 5 5.6 5.6
2020-Oct-27 15:12 065 5.6 5.6
2020-Oct-27 15:06 142 3 gusting 5 5.6 5.6
2020-Oct-27 15:00 094 3 gusting 4 5.6 5.6
2020-Oct-27 14:54 132 0 gusting 3 5.6 5.6
2020-Oct-27 14:48 121 0 gusting 2 5.6 5.6
2020-Oct-27 14:42 194 0 gusting 2 5.6 5.6
2020-Oct-27 14:36 192 0 gusting 1 5.6 5.6
2020-Oct-27 14:30 102 0 gusting 1 5.6 5.6
2020-Oct-27 14:24 205 5.6 5.6
2020-Oct-27 14:18 150 0 gusting 1 5.6 5.6
2020-Oct-27 14:12 253 0 gusting 1 5.6 5.6
2020-Oct-27 14:06 063 5.6 5.6
2020-Oct-27 14:00 033 0 gusting 2 5.6 5.6
2020-Oct-27 13:54 034 5.6 5.6
2020-Oct-27 13:48 043 0 gusting 1 5.6 5.6
2020-Oct-27 13:42 057 1 gusting 3 5.6 5.6
2020-Oct-27 13:36 073 2 gusting 3 5.6 5.6
2020-Oct-27 13:30 058 2 gusting 3 5.6 5.6
2020-Oct-27 13:24 084 2 gusting 3 5.6 5.6
2020-Oct-27 13:18 070 2 gusting 3 5.6 5.6
2020-Oct-27 13:12 085 1 gusting 3 5.6 5.6
2020-Oct-27 13:06 086 2 gusting 3 5.6 5.6
2020-Oct-27 13:00 071 2 gusting 2 5.6 5.6
2020-Oct-27 12:54 072 1 gusting 3 6.1 5.6
2020-Oct-27 12:48 068 1 gusting 2 6.1 5.6
2020-Oct-27 12:42 044 1 gusting 3 6.1 5.6
2020-Oct-27 12:36 041 2 gusting 5 6.1 5.6
2020-Oct-27 12:30 068 3 gusting 4 6.1 5.6
2020-Oct-27 12:24 049 1 gusting 3 5.6 5.6
2020-Oct-27 12:18 051 2 gusting 4 5.6 5.6
2020-Oct-27 12:12 074 1 gusting 2 5.6 5.6
2020-Oct-27 12:06 009 0 gusting 1 5.6 5.6
2020-Oct-27 12:00 093 2 gusting 3 5.6 5.6
2020-Oct-27 11:54 099 2 gusting 4 5.6 5.6
2020-Oct-27 11:48 083 1 gusting 3 6.1 5.6
2020-Oct-27 11:42 070 2 gusting 4 6.1 5.6
2020-Oct-27 11:36 084 2 gusting 3 6.1 5.6
2020-Oct-27 11:30 089 3 gusting 4 6.1 5.6
2020-Oct-27 11:24 070 1 gusting 4 6.1 5.6
2020-Oct-27 11:18 063 3 gusting 4 6.1 5.6
2020-Oct-27 11:12 066 2 gusting 4 6.1 5.6
2020-Oct-27 11:06 080 3 gusting 4 6.1 5.6
2020-Oct-27 11:00 092 3 gusting 5 5.6 5.6
2020-Oct-27 10:54 063 1 gusting 5 5.6 5.6
2020-Oct-27 10:48 100 3 gusting 5 6.1 5.6
2020-Oct-27 10:42 079 2 gusting 3 6.1 5.6
2020-Oct-27 10:36 100 2 gusting 4 6.1 5.6
2020-Oct-27 10:30 105 1 gusting 4 6.1 5.6
2020-Oct-27 10:24 116 3 gusting 6 5.6 5.6
2020-Oct-27 10:18 172 2 gusting 4 5.6 5.6
2020-Oct-27 10:12 341 1 gusting 2 6.1 5.6
2020-Oct-27 10:06 075 2 gusting 3 6.1 5.6
2020-Oct-27 10:00 138 1 gusting 4 6.1 5.6
2020-Oct-27 09:54 325 0 gusting 2 6.1 5.6
2020-Oct-27 09:48 092 6.1 5.6
2020-Oct-27 09:42 129 1 gusting 4 6.1 5.6
2020-Oct-27 09:36 140 2 gusting 5 6.1 5.6
2020-Oct-27 09:30 155 6.1 5.6
2020-Oct-27 09:24 178 0 gusting 2 6.1 5.6
2020-Oct-27 09:18 333 1 gusting 2 6.7 5.6
2020-Oct-27 09:12 031 2 gusting 4 6.7 5.6
2020-Oct-27 09:06 032 3 gusting 5 6.7 5.6
2020-Oct-27 09:00 021 3 gusting 4 6.7 5.6
2020-Oct-27 08:54 030 3 gusting 4 6.7 6.1
2020-Oct-27 08:48 6.7 6.1
2020-Oct-27 08:42 246 0 gusting 3 6.7 6.1
2020-Oct-27 08:36 132 3 gusting 8 6.7 6.1
2020-Oct-27 08:30 124 6 gusting 9 6.7 6.1
2020-Oct-27 08:24 108 6 gusting 7 7.2 6.1
2020-Oct-27 08:18 098 1 gusting 2 7.2 6.1
2020-Oct-27 08:12 094 1 gusting 2 7.2 6.1
2020-Oct-27 08:06 250 7.2 6.1
2020-Oct-27 08:00 218 2 gusting 3 7.8 6.1
2020-Oct-27 07:54 054 0 gusting 1 7.8 6.1
2020-Oct-27 07:48 244 2 gusting 5 7.8 6.1
2020-Oct-27 07:42 302 1 gusting 3 7.2 6.1
2020-Oct-27 07:36 217 2 gusting 6 7.8 6.1
2020-Oct-27 07:30 275 7.8 6.1
2020-Oct-27 07:24 255 1 gusting 2 7.2 6.1
2020-Oct-27 07:18 157 7.8 6.1
2020-Oct-27 07:12 208 1 gusting 3 7.8 6.1
2020-Oct-27 07:06 305 0 gusting 5 7.2 6.1
2020-Oct-27 07:00 269 3 gusting 5 8.3 6.1
2020-Oct-27 06:54 291 1 gusting 2 7.2 6.1
2020-Oct-27 06:48 260 2 gusting 3 7.2 6.1
2020-Oct-27 06:42 123 1 gusting 2 6.7 6.1
2020-Oct-27 06:36 139 4 gusting 6 6.7 6.1
2020-Oct-27 06:30 158 4 gusting 5 7.2 6.1
2020-Oct-27 06:24 117 5 gusting 6 7.2 6.1
2020-Oct-27 06:18 158 1 gusting 5 6.7 6.1
2020-Oct-27 06:12 113 7.2 6.1
2020-Oct-27 06:06 196 2 gusting 5 7.2 6.1
2020-Oct-27 06:00 151 6.7 6.1
2020-Oct-27 05:54 354 6.1 6.1
2020-Oct-27 05:48 175 6.1 6.1
2020-Oct-27 05:42 167 1 gusting 1 6.7 6.1
2020-Oct-27 05:36 229 6.7 6.1
2020-Oct-27 05:30 200 0 gusting 3 6.7 6.1
2020-Oct-27 05:24 178 1 gusting 3 6.7 6.1
2020-Oct-27 05:18 131 7.2 6.1
2020-Oct-27 05:12 158 0 gusting 4 7.8 6.1
2020-Oct-27 05:06 187 2 gusting 5 7.2 6.1
2020-Oct-27 05:00 189 1 gusting 6 7.8 6.1
2020-Oct-27 04:54 215 3 gusting 10 8.3 5.6
2020-Oct-27 04:48 247 3 gusting 6 8.3 5.6
2020-Oct-27 04:42 126 0 gusting 5 7.8 5.6
2020-Oct-27 04:36 199 3 gusting 5 8.3 5.6
2020-Oct-27 04:30 214 3 gusting 6 8.3 5.6
2020-Oct-27 04:24 223 4 gusting 6 8.3 5.6
2020-Oct-27 04:18 100 4 gusting 9 7.8 5.6
2020-Oct-27 04:12 141 6 gusting 10 7.2 5.6
2020-Oct-27 04:06 252 1 gusting 3 8.3 5.6
2020-Oct-27 04:00 206 0 gusting 2 8.3 5.6
2020-Oct-27 03:54 191 0 gusting 1 8.3 5.6
2020-Oct-27 03:48 347 8.9 5.6
2020-Oct-27 03:42 012 1 gusting 7 8.3 5.6
2020-Oct-27 03:36 261 5 gusting 10 8.9 5.6
2020-Oct-27 03:30 230 3 gusting 8 8.9 5.6
2020-Oct-27 03:24 218 4 gusting 8 9.4 5.6
2020-Oct-27 03:18 231 4 gusting 8 9.4 5.6
2020-Oct-27 03:12 094 0 gusting 3 9.4 5.6
2020-Oct-27 03:06 233 0 gusting 6 8.9 5.6
2020-Oct-27 03:00 172 3 gusting 10 9.4 5.6
2020-Oct-27 02:54 270 1 gusting 3 8.9 5.6
2020-Oct-27 02:48 075 0 gusting 2 7.8 5.6
2020-Oct-27 02:42 212 1 gusting 2 7.8 5.6
2020-Oct-27 02:36 152 0 gusting 4 9.4 5.6
2020-Oct-27 02:30 214 1 gusting 5 9.4 5.6
2020-Oct-27 02:24 115 3 gusting 5 8.3 5.6
2020-Oct-27 02:18 110 2 gusting 4 7.8 5.6
2020-Oct-27 02:12 304 8.3 5.6
2020-Oct-27 02:06 178 1 gusting 5 7.8 5.6
2020-Oct-27 02:00 254 5 gusting 7 10.0 5.6
2020-Oct-27 01:54 228 1 gusting 11 10.0 5.6
2020-Oct-27 01:48 233 4 gusting 8 10.0 5.6
2020-Oct-27 01:42 234 6 gusting 13 10.0 5.6
2020-Oct-27 01:36 250 0 gusting 4 8.9 5.6
2020-Oct-27 01:30 134 1 gusting 7 8.3 5.6
2020-Oct-27 01:24 280 0 gusting 4 8.9 5.6
2020-Oct-27 01:18 083 1 gusting 4 8.3 5.6
2020-Oct-27 01:12 091 1 gusting 2 7.2 5.6
2020-Oct-27 01:06 080 0 gusting 2 7.8 5.6
2020-Oct-27 01:00 205 3 gusting 4 7.8 5.6
2020-Oct-27 00:54 233 0 gusting 1 7.8 5.6
2020-Oct-27 00:48 116 0 gusting 3 8.3 5.6
2020-Oct-27 00:42 237 1 gusting 4 7.8 5.6
2020-Oct-27 00:36 065 8.3 5.6
2020-Oct-27 00:30 217 8.3 5.6
2020-Oct-27 00:24 124 8.3 5.6
2020-Oct-27 00:18 091 1 gusting 4 8.3 5.6
2020-Oct-27 00:12 276 0 gusting 3 8.3 5.6
2020-Oct-27 00:06 131 2 gusting 7 7.8 5.6
2020-Oct-27 00:00 154 7 gusting 9 8.3 5.6
2020-Oct-26 23:48 142 3 gusting 8 8.3 5.6
2020-Oct-26 23:42 140 3 gusting 9 8.3 5.6
2020-Oct-26 23:36 156 2 gusting 5 9.4 5.6
2020-Oct-26 23:30 191 1 gusting 7 10.0 5.6
2020-Oct-26 23:24 227 4 gusting 8 11.1 5.6
2020-Oct-26 23:18 220 6 gusting 12 10.6 5.6
2020-Oct-26 23:12 228 2 gusting 7 10.6 5.6
2020-Oct-26 23:06 189 5 gusting 12 10.6 5.6
2020-Oct-26 23:00 158 6 gusting 9 10.6 5.6
2020-Oct-26 22:54 111 6 gusting 9 10.6 5.6
2020-Oct-26 22:48 188 5 gusting 11 10.6 5.6
2020-Oct-26 22:42 210 2 gusting 6 10.6 5.6
2020-Oct-26 22:36 213 2 gusting 13 10.6 5.6
2020-Oct-26 22:30 163 4 gusting 8 10.6 5.6
2020-Oct-26 22:24 147 3 gusting 7 10.0 5.6
2020-Oct-26 22:18 185 4 gusting 15 9.4 5.6
2020-Oct-26 22:12 127 7 gusting 9 9.4 5.6
2020-Oct-26 22:06 164 6 gusting 9 9.4 5.6
2020-Oct-26 22:00 113 6 gusting 12 10.0 5.6
2020-Oct-26 21:54 188 3 gusting 6 8.9 5.6
2020-Oct-26 21:48 138 4 gusting 14 8.9 5.6
2020-Oct-26 21:42 150 7 gusting 9 8.9 5.6
2020-Oct-26 21:36 150 5 gusting 6 8.9 5.6
2020-Oct-26 21:30 148 7 gusting 10 8.9 5.6
2020-Oct-26 21:24 178 5 gusting 7 8.3 5.6
2020-Oct-26 21:18 179 6 gusting 7 8.3 5.6
2020-Oct-26 21:12 163 6 gusting 6 8.3 5.6
2020-Oct-26 21:06 208 4 gusting 6 8.3 5.6
2020-Oct-26 21:00 171 4 gusting 7 7.8 5.6
2020-Oct-26 20:54 161 7 gusting 9 8.3 5.6
2020-Oct-26 20:48 180 6 gusting 7 7.8 5.6
2020-Oct-26 20:42 158 6 gusting 8 7.2 5.6
2020-Oct-26 20:36 158 6 gusting 10 7.2 5.6
2020-Oct-26 20:30 138 9 gusting 11 8.3 5.6
2020-Oct-26 20:24 130 8 gusting 13 8.3 5.6
2020-Oct-26 20:18 133 11 gusting 13 8.3 5.6
2020-Oct-26 20:12 136 11 gusting 16 8.3 5.6
2020-Oct-26 20:06 132 12 gusting 15 8.3 5.6
2020-Oct-26 20:00 130 11 gusting 13 8.3 5.6
2020-Oct-26 19:54 134 11 gusting 13 8.3 5.6
2020-Oct-26 19:48 127 11 gusting 18 8.3 5.6
2020-Oct-26 19:42 126 11 gusting 17 8.3 5.6
2020-Oct-26 19:36 118 12 gusting 15 8.3 5.6
2020-Oct-26 19:30 117 13 gusting 18 8.3 5.6
2020-Oct-26 19:24 102 13 gusting 18 8.9 5.6
2020-Oct-26 19:18 107 14 gusting 19 8.9 5.6
2020-Oct-26 19:12 115 13 gusting 18 8.9 5.6
2020-Oct-26 19:06 111 13 gusting 19 8.3 5.6
2020-Oct-26 19:00 105 15 gusting 21 8.9 5.6
2020-Oct-26 18:54 107 16 gusting 24 8.9 5.6
2020-Oct-26 18:48 102 11 gusting 19 8.3 5.6
2020-Oct-26 18:42 106 11 gusting 18 8.3 5.6
2020-Oct-26 18:36 108 12 gusting 18 8.3 5.6
2020-Oct-26 18:30 104 13 gusting 18 8.3 5.6
2020-Oct-26 18:24 101 10 gusting 18 8.3 5.6
2020-Oct-26 18:18 101 13 gusting 20 8.3 5.6
2020-Oct-26 18:12 092 18 gusting 25 8.9 5.6
2020-Oct-26 18:06 085 14 gusting 19 8.9 5.6
2020-Oct-26 18:00 082 8 gusting 13 8.3 5.6
2020-Oct-26 17:54 077 7 gusting 13 8.3 5.6
2020-Oct-26 17:48 087 8 gusting 13 7.8 5.6
2020-Oct-26 17:42 089 9 gusting 15 7.8 5.6
2020-Oct-26 17:36 087 10 gusting 19 7.8 5.6
2020-Oct-26 17:30 094 13 gusting 17 8.3 5.6
2020-Oct-26 17:24 085 10 gusting 15 7.8 5.6
2020-Oct-26 17:18 091 9 gusting 14 7.8 5.6
2020-Oct-26 17:12 073 9 gusting 13 7.8 5.6
2020-Oct-26 17:06 102 6 gusting 11 7.8 5.6
2020-Oct-26 17:00 090 6 gusting 10 7.8 5.6